Time,TemperatureF,DewpointF,PressureIn,WindDirection,WindDirectionDegrees,WindSpeedMPH,WindSpeedGustMPH,Humidity,HourlyPrecipIn,Conditions,Clouds,dailyrainin,SoftwareType,DateUTC
2013-02-14 00:02:00,31.0,23.0,-100.00,ENE,60,2.0,6.0,70,0.00,,,0.00,,2013-02-14 00:02:00,
2013-02-14 00:11:00,31.0,23.0,-100.00,NE,45,1.0,6.0,71,0.00,,,0.00,,2013-02-14 00:11:00,
2013-02-14 00:21:00,31.0,23.0,-100.00,NNE,20,1.0,5.0,71,0.00,,,0.00,,2013-02-14 00:21:00,
2013-02-14 00:32:00,31.0,23.0,-100.00,ENE,65,2.0,4.0,71,0.00,,,0.00,,2013-02-14 00:32:00,
2013-02-14 00:42:00,31.0,23.0,-100.00,NE,55,2.0,5.0,71,0.00,,,0.00,,2013-02-14 00:42:00,
2013-02-14 00:51:00,31.0,23.0,-100.00,NNE,25,3.0,7.0,71,0.00,,,0.00,,2013-02-14 00:51:00,
2013-02-14 01:01:00,31.0,23.0,-100.00,NE,50,2.0,6.0,71,0.00,,,0.00,,2013-02-14 01:01:00,
2013-02-14 01:11:00,30.0,23.0,-100.00,NE,35,2.0,6.0,71,0.00,,,0.00,,2013-02-14 01:11:00,
2013-02-14 01:21:00,30.0,23.0,-100.00,NE,50,1.0,4.0,72,0.00,,,0.00,,2013-02-14 01:21:00,
2013-02-14 01:31:00,30.0,23.0,-100.00,NE,40,3.0,6.0,72,0.00,,,0.00,,2013-02-14 01:31:00,
2013-02-14 01:41:00,30.0,23.0,-100.00,ENE,70,3.0,6.0,72,0.00,,,0.00,,2013-02-14 01:41:00,
2013-02-14 01:51:00,30.0,23.0,-100.00,NE,35,3.0,6.0,73,0.00,,,0.00,,2013-02-14 01:51:00,
2013-02-14 02:01:00,30.0,23.0,-100.00,NE,55,3.0,6.0,73,0.00,,,0.00,,2013-02-14 02:01:00,
2013-02-14 02:11:00,30.0,23.0,-100.00,NE,40,2.0,6.0,73,0.00,,,0.00,,2013-02-14 02:11:00,
2013-02-14 02:21:00,30.0,23.0,-100.00,East,80,1.0,5.0,73,0.00,,,0.00,,2013-02-14 02:21:00,
2013-02-14 02:31:00,30.0,23.0,-100.00,NE,35,2.0,6.0,73,0.00,,,0.00,,2013-02-14 02:31:00,
2013-02-14 02:41:00,30.0,23.0,-100.00,NE,35,2.0,6.0,73,0.00,,,0.00,,2013-02-14 02:41:00,
2013-02-14 02:51:00,30.0,23.0,-100.00,NE,35,2.0,6.0,73,0.00,,,0.00,,2013-02-14 02:51:00,
2013-02-14 03:02:00,29.0,21.0,-100.00,ENE,60,1.0,4.0,74,0.00,,,0.00,,2013-02-14 03:02:00,
2013-02-14 03:11:00,29.0,21.0,-100.00,ENE,65,2.0,4.0,74,0.00,,,0.00,,2013-02-14 03:11:00,
2013-02-14 03:21:00,29.0,21.0,-100.00,NE,50,0.0,2.0,74,0.00,,,0.00,,2013-02-14 03:21:00,
2013-02-14 03:31:00,29.0,21.0,-100.00,North,0,2.0,4.0,75,0.00,,,0.00,,2013-02-14 03:31:00,
2013-02-14 03:42:00,29.0,21.0,-100.00,North,10,1.0,3.0,75,0.00,,,0.00,,2013-02-14 03:42:00,
2013-02-14 03:51:00,29.0,21.0,-100.00,NNW,345,1.0,4.0,76,0.00,,,0.00,,2013-02-14 03:51:00,
2013-02-14 04:01:00,28.0,21.0,-100.00,NNE,20,1.0,4.0,76,0.00,,,0.00,,2013-02-14 04:01:00,
2013-02-14 04:11:00,28.0,21.0,-100.00,North,0,1.0,2.0,77,0.00,,,0.00,,2013-02-14 04:11:00,
2013-02-14 04:21:00,28.0,21.0,-100.00,NNE,25,0.0,1.0,78,0.00,,,0.00,,2013-02-14 04:21:00,
2013-02-14 04:31:00,27.0,21.0,-100.00,ENE,65,0.0,1.0,79,0.00,,,0.00,,2013-02-14 04:31:00,
2013-02-14 04:41:00,27.0,21.0,-100.00,ENE,65,0.0,0.0,80,0.00,,,0.00,,2013-02-14 04:41:00,
2013-02-14 04:51:00,26.0,21.0,-100.00,NW,310,0.0,0.0,81,0.00,,,0.00,,2013-02-14 04:51:00,
2013-02-14 05:02:00,25.0,21.0,-100.00,ENE,70,0.0,0.0,83,0.00,,,0.00,,2013-02-14 05:02:00,
2013-02-14 05:11:00,25.0,21.0,-100.00,North,10,0.0,0.0,84,0.00,,,0.00,,2013-02-14 05:11:00,
2013-02-14 05:21:00,24.0,21.0,-100.00,North,350,0.0,0.0,87,0.00,,,0.00,,2013-02-14 05:21:00,
2013-02-14 05:31:00,23.0,19.0,-100.00,NNW,340,2.0,2.0,88,0.00,,,0.00,,2013-02-14 05:31:00,
2013-02-14 05:41:00,22.0,19.0,-100.00,North,0,1.0,3.0,89,0.00,,,0.00,,2013-02-14 05:41:00,
2013-02-14 05:52:00,22.0,19.0,-100.00,North,355,1.0,2.0,91,0.00,,,0.00,,2013-02-14 05:52:00,
2013-02-14 06:02:00,22.0,19.0,-100.00,North,355,1.0,3.0,92,0.00,,,0.00,,2013-02-14 06:02:00,
2013-02-14 06:11:00,22.0,19.0,-100.00,NNW,345,0.0,1.0,92,0.00,,,0.00,,2013-02-14 06:11:00,
2013-02-14 06:21:00,22.0,21.0,-100.00,North,0,1.0,2.0,93,0.00,,,0.00,,2013-02-14 06:21:00,
2013-02-14 06:31:00,23.0,21.0,-100.00,North,355,2.0,2.0,93,0.00,,,0.00,,2013-02-14 06:31:00,
2013-02-14 06:41:00,23.0,21.0,-100.00,NW,325,1.0,2.0,94,0.00,,,0.00,,2013-02-14 06:41:00,
2013-02-14 06:51:00,23.0,21.0,-100.00,NW,315,0.0,2.0,94,0.00,,,0.00,,2013-02-14 06:51:00,
2013-02-14 07:01:00,24.0,23.0,-100.00,NW,310,2.0,3.0,94,0.00,,,0.00,,2013-02-14 07:01:00,
2013-02-14 07:11:00,24.0,23.0,-100.00,NW,305,1.0,3.0,94,0.00,,,0.00,,2013-02-14 07:11:00,
2013-02-14 07:21:00,24.0,23.0,-100.00,NW,310,1.0,1.0,94,0.00,,,0.00,,2013-02-14 07:21:00,
2013-02-14 07:31:00,24.0,23.0,-100.00,WNW,295,1.0,2.0,94,0.00,,,0.00,,2013-02-14 07:31:00,
2013-02-14 07:41:00,25.0,23.0,-100.00,NW,310,1.0,1.0,94,0.00,,,0.00,,2013-02-14 07:41:00,
2013-02-14 07:51:00,25.0,23.0,-100.00,North,350,1.0,2.0,94,0.00,,,0.00,,2013-02-14 07:51:00,
2013-02-14 08:01:00,25.0,23.0,-100.00,NW,325,1.0,2.0,94,0.00,,,0.00,,2013-02-14 08:01:00,
2013-02-14 08:11:00,25.0,23.0,-100.00,NNW,330,0.0,1.0,94,0.00,,,0.00,,2013-02-14 08:11:00,
2013-02-14 08:21:00,25.0,23.0,-100.00,NW,310,0.0,2.0,94,0.00,,,0.00,,2013-02-14 08:21:00,
2013-02-14 08:32:00,25.0,23.0,-100.00,WNW,285,0.0,1.0,94,0.00,,,0.00,,2013-02-14 08:32:00,
2013-02-14 08:43:00,25.0,23.0,-100.00,West,270,0.0,1.0,94,0.00,,,0.00,,2013-02-14 08:43:00,
2013-02-14 08:52:00,24.0,23.0,-100.00,West,260,1.0,3.0,95,0.00,,,0.00,,2013-02-14 08:52:00,
2013-02-14 09:01:00,23.0,21.0,-100.00,WSW,255,0.0,1.0,95,0.00,,,0.00,,2013-02-14 09:01:00,
2013-02-14 09:11:00,22.0,21.0,-100.00,NW,310,0.0,0.0,95,0.00,,,0.00,,2013-02-14 09:11:00,
2013-02-14 09:21:00,21.0,19.0,-100.00,NW,315,0.0,0.0,95,0.00,,,0.00,,2013-02-14 09:21:00,
2013-02-14 09:31:00,20.0,19.0,-100.00,West,275,0.0,1.0,96,0.00,,,0.00,,2013-02-14 09:31:00,
2013-02-14 09:41:00,19.0,18.0,-100.00,NW,320,0.0,0.0,96,0.00,,,0.00,,2013-02-14 09:41:00,
2013-02-14 09:51:00,18.0,18.0,-100.00,NW,315,0.0,2.0,96,0.00,,,0.00,,2013-02-14 09:51:00,
2013-02-14 10:02:00,18.0,18.0,-100.00,WNW,295,1.0,2.0,96,0.00,,,0.00,,2013-02-14 10:02:00,
2013-02-14 10:11:00,19.0,18.0,-100.00,NW,305,1.0,4.0,97,0.00,,,0.00,,2013-02-14 10:11:00,
2013-02-14 10:21:00,21.0,19.0,-100.00,NW,305,2.0,5.0,97,0.00,,,0.00,,2013-02-14 10:21:00,
2013-02-14 10:31:00,22.0,21.0,-100.00,NNW,330,1.0,5.0,97,0.00,,,0.00,,2013-02-14 10:31:00,
2013-02-14 10:42:00,22.0,21.0,-100.00,North,355,1.0,5.0,97,0.00,,,0.00,,2013-02-14 10:42:00,
2013-02-14 11:01:00,23.0,23.0,-100.00,NW,310,2.0,4.0,98,0.00,,,0.00,,2013-02-14 11:01:00,
2013-02-14 11:11:00,23.0,23.0,-100.00,NW,325,2.0,6.0,98,0.00,,,0.00,,2013-02-14 11:11:00,
2013-02-14 11:21:00,23.0,23.0,-100.00,NW,320,2.0,6.0,98,0.00,,,0.00,,2013-02-14 11:21:00,
2013-02-14 11:32:00,22.0,21.0,-100.00,NW,315,2.0,5.0,98,0.00,,,0.00,,2013-02-14 11:32:00,
2013-02-14 11:42:00,23.0,23.0,-100.00,NNW,330,6.0,12.0,98,0.00,,,0.00,,2013-02-14 11:42:00,
2013-02-14 11:52:00,23.0,23.0,-100.00,NNW,335,4.0,9.0,98,0.00,,,0.00,,2013-02-14 11:52:00,
2013-02-14 12:02:00,23.0,23.0,-100.00,NNW,335,4.0,9.0,98,0.00,,,0.00,,2013-02-14 12:02:00,
2013-02-14 12:11:00,23.0,23.0,-100.00,North,0,6.0,12.0,97,0.00,,,0.00,,2013-02-14 12:11:00,
2013-02-14 12:22:00,23.0,23.0,-100.00,NNW,345,6.0,12.0,97,0.00,,,0.00,,2013-02-14 12:22:00,
2013-02-14 12:32:00,23.0,23.0,-100.00,North,0,6.0,12.0,96,0.00,,,0.00,,2013-02-14 12:32:00,
2013-02-14 12:42:00,23.0,21.0,-100.00,North,0,7.0,14.0,95,0.00,,,0.00,,2013-02-14 12:42:00,
2013-02-14 12:53:00,23.0,21.0,-100.00,NW,325,6.0,14.0,94,0.00,,,0.00,,2013-02-14 12:53:00,
2013-02-14 13:01:00,23.0,21.0,-100.00,NW,310,6.0,14.0,94,0.00,,,0.00,,2013-02-14 13:01:00,
2013-02-14 13:11:00,23.0,21.0,-100.00,NNW,335,4.0,14.0,94,0.00,,,0.00,,2013-02-14 13:11:00,
2013-02-14 13:21:00,23.0,21.0,-100.00,NW,310,4.0,9.0,94,0.00,,,0.00,,2013-02-14 13:21:00,
2013-02-14 13:31:00,22.0,21.0,-100.00,NNW,335,6.0,12.0,93,0.00,,,0.00,,2013-02-14 13:31:00,
2013-02-14 13:41:00,22.0,21.0,-100.00,North,350,5.0,11.0,93,0.00,,,0.00,,2013-02-14 13:41:00,
2013-02-14 13:51:00,21.0,19.0,-100.00,NW,325,6.0,14.0,92,0.00,,,0.00,,2013-02-14 13:51:00,
2013-02-14 14:01:00,20.0,18.0,-100.00,North,0,7.0,12.0,91,0.00,,,0.00,,2013-02-14 14:01:00,
2013-02-14 14:11:00,20.0,18.0,-100.00,NNW,330,6.0,14.0,91,0.00,,,0.00,,2013-02-14 14:11:00,
2013-02-14 14:21:00,19.0,18.0,-100.00,NNW,345,4.0,11.0,90,0.00,,,0.00,,2013-02-14 14:21:00,
2013-02-14 14:31:00,19.0,16.0,-100.00,NNW,330,6.0,13.0,89,0.00,,,0.00,,2013-02-14 14:31:00,
2013-02-14 14:41:00,19.0,16.0,-100.00,North,0,6.0,15.0,88,0.00,,,0.00,,2013-02-14 14:41:00,
2013-02-14 14:52:00,18.0,16.0,-100.00,North,0,9.0,16.0,87,0.00,,,0.00,,2013-02-14 14:52:00,
2013-02-14 15:01:00,18.0,14.0,-100.00,North,355,7.0,16.0,86,0.00,,,0.00,,2013-02-14 15:01:00,
2013-02-14 15:11:00,18.0,14.0,-100.00,North,0,11.0,17.0,84,0.00,,,0.00,,2013-02-14 15:11:00,
2013-02-14 15:21:00,17.0,12.0,-100.00,North,0,8.0,19.0,83,0.00,,,0.00,,2013-02-14 15:21:00,
2013-02-14 15:32:00,17.0,12.0,-100.00,North,0,10.0,14.0,82,0.00,,,0.00,,2013-02-14 15:32:00,
2013-02-14 15:41:00,18.0,12.0,-100.00,North,0,7.0,13.0,80,0.00,,,0.00,,2013-02-14 15:41:00,
2013-02-14 15:52:00,18.0,12.0,-100.00,NNW,340,8.0,15.0,79,0.00,,,0.00,,2013-02-14 15:52:00,
2013-02-14 16:01:00,17.0,10.0,-100.00,North,0,12.0,19.0,75,0.00,,,0.00,,2013-02-14 16:01:00,
2013-02-14 16:11:00,18.0,10.0,-100.00,North,0,7.0,17.0,74,0.00,,,0.00,,2013-02-14 16:11:00,
2013-02-14 16:21:00,18.0,10.0,-100.00,NW,315,9.0,16.0,72,0.00,,,0.00,,2013-02-14 16:21:00,
2013-02-14 16:32:00,18.0,9.0,-100.00,North,0,9.0,17.0,69,0.00,,,0.00,,2013-02-14 16:32:00,
2013-02-14 16:41:00,17.0,7.0,-100.00,North,355,15.0,22.0,66,0.00,,,0.00,,2013-02-14 16:41:00,
2013-02-14 16:51:00,17.0,9.0,-100.00,North,0,12.0,17.0,65,0.00,,,0.00,,2013-02-14 16:51:00,
2013-02-14 17:01:00,18.0,7.0,-100.00,NNW,345,9.0,15.0,62,0.00,,,0.00,,2013-02-14 17:01:00,
2013-02-14 17:11:00,17.0,7.0,-100.00,North,0,12.0,17.0,61,0.00,,,0.00,,2013-02-14 17:11:00,
2013-02-14 17:21:00,19.0,7.0,-100.00,NNW,335,7.0,18.0,59,0.00,,,0.00,,2013-02-14 17:21:00,
2013-02-14 17:31:00,20.0,7.0,-100.00,NW,325,8.0,14.0,57,0.00,,,0.00,,2013-02-14 17:31:00,
2013-02-14 17:41:00,20.0,7.0,-100.00,North,0,7.0,12.0,55,0.00,,,0.00,,2013-02-14 17:41:00,
2013-02-14 17:52:00,20.0,5.0,-100.00,North,0,9.0,20.0,54,0.00,,,0.00,,2013-02-14 17:52:00,
2013-02-14 18:01:00,20.0,5.0,-100.00,North,355,9.0,21.0,52,0.00,,,0.00,,2013-02-14 18:01:00,
2013-02-14 18:11:00,20.0,5.0,-100.00,North,350,10.0,16.0,50,0.00,,,0.00,,2013-02-14 18:11:00,
2013-02-14 18:22:00,20.0,3.0,-100.00,North,0,11.0,16.0,49,0.00,,,0.00,,2013-02-14 18:22:00,
2013-02-14 18:32:00,20.0,3.0,-100.00,North,355,9.0,16.0,47,0.00,,,0.00,,2013-02-14 18:32:00,
2013-02-14 18:41:00,21.0,3.0,-100.00,NNW,345,6.0,17.0,47,0.00,,,0.00,,2013-02-14 18:41:00,
2013-02-14 18:51:00,22.0,5.0,-100.00,WNW,295,9.0,19.0,47,0.00,,,0.00,,2013-02-14 18:51:00,
2013-02-14 19:02:00,21.0,3.0,-100.00,North,0,6.0,16.0,46,0.00,,,0.00,,2013-02-14 19:02:00,
2013-02-14 19:11:00,22.0,5.0,-100.00,WNW,300,7.0,16.0,45,0.00,,,0.00,,2013-02-14 19:11:00,
2013-02-14 19:21:00,22.0,3.0,-100.00,North,0,9.0,14.0,43,0.00,,,0.00,,2013-02-14 19:21:00,
2013-02-14 19:31:00,21.0,1.0,-100.00,North,0,9.0,16.0,42,0.00,,,0.00,,2013-02-14 19:31:00,
2013-02-14 19:41:00,23.0,3.0,-100.00,NW,305,5.0,13.0,40,0.00,,,0.00,,2013-02-14 19:41:00,
2013-02-14 19:51:00,22.0,1.0,-100.00,North,0,9.0,16.0,39,0.00,,,0.00,,2013-02-14 19:51:00,
2013-02-14 20:01:00,21.0,0.0,-100.00,North,0,9.0,18.0,37,0.00,,,0.00,,2013-02-14 20:01:00,
2013-02-14 20:11:00,22.0,0.0,-100.00,North,0,7.0,15.0,36,0.00,,,0.00,,2013-02-14 20:11:00,
2013-02-14 20:21:00,23.0,0.0,-100.00,NW,310,7.0,13.0,35,0.00,,,0.00,,2013-02-14 20:21:00,
2013-02-14 20:31:00,22.0,-2.0,-100.00,North,0,8.0,17.0,35,0.00,,,0.00,,2013-02-14 20:31:00,
2013-02-14 20:41:00,23.0,0.0,-100.00,NNW,330,12.0,16.0,36,0.00,,,0.00,,2013-02-14 20:41:00,
2013-02-14 20:52:00,23.0,0.0,-100.00,NNW,330,12.0,19.0,36,0.00,,,0.00,,2013-02-14 20:52:00,
2013-02-14 21:02:00,22.0,0.0,-100.00,North,0,14.0,18.0,35,0.00,,,0.00,,2013-02-14 21:02:00,
2013-02-14 21:11:00,22.0,0.0,-100.00,NNW,335,9.0,22.0,36,0.00,,,0.00,,2013-02-14 21:11:00,
2013-02-14 21:21:00,22.0,0.0,-100.00,North,0,10.0,18.0,36,0.00,,,0.00,,2013-02-14 21:21:00,
2013-02-14 21:31:00,24.0,1.0,-100.00,NNW,335,9.0,15.0,36,0.00,,,0.00,,2013-02-14 21:31:00,
2013-02-14 21:41:00,22.0,0.0,-100.00,NNW,345,7.0,15.0,36,0.00,,,0.00,,2013-02-14 21:41:00,
2013-02-14 21:51:00,23.0,0.0,-100.00,NNW,330,6.0,13.0,36,0.00,,,0.00,,2013-02-14 21:51:00,
2013-02-14 22:02:00,23.0,0.0,-100.00,North,350,6.0,12.0,36,0.00,,,0.00,,2013-02-14 22:02:00,
2013-02-14 22:11:00,22.0,0.0,-100.00,North,0,10.0,19.0,36,0.00,,,0.00,,2013-02-14 22:11:00,
2013-02-14 22:21:00,23.0,0.0,-100.00,NW,325,9.0,15.0,37,0.00,,,0.00,,2013-02-14 22:21:00,
2013-02-14 22:31:00,22.0,0.0,-100.00,North,0,4.0,12.0,37,0.00,,,0.00,,2013-02-14 22:31:00,
2013-02-14 22:41:00,22.0,0.0,-100.00,NNW,330,9.0,16.0,36,0.00,,,0.00,,2013-02-14 22:41:00,
2013-02-14 22:51:00,22.0,0.0,-100.00,NW,315,9.0,16.0,37,0.00,,,0.00,,2013-02-14 22:51:00,
2013-02-14 23:01:00,22.0,0.0,-100.00,North,0,6.0,15.0,37,0.00,,,0.00,,2013-02-14 23:01:00,
2013-02-14 23:11:00,22.0,0.0,-100.00,North,0,6.0,15.0,37,0.00,,,0.00,,2013-02-14 23:11:00,
2013-02-14 23:21:00,22.0,0.0,-100.00,NNW,330,4.0,12.0,37,0.00,,,0.00,,2013-02-14 23:21:00,
2013-02-14 23:31:00,21.0,0.0,-100.00,NNW,335,6.0,10.0,37,0.00,,,0.00,,2013-02-14 23:31:00,
2013-02-14 23:41:00,20.0,0.0,-100.00,NW,325,4.0,10.0,38,0.00,,,0.00,,2013-02-14 23:41:00,
2013-02-14 23:52:00,20.0,0.0,-100.00,WNW,300,6.0,11.0,39,0.00,,,0.00,,2013-02-14 23:52:00,